Terminal Aerodrome Forecast
Issued by NWS Albany, NY

Current Version | Previous Version | Text Only | Print | Product List | Glossary On
Versions: 1 2 3 4 5 6 7 8 9 10 11 12 13 14 15 16 17 18 19 20
000 FTUS41 KALY 300500 TAFALB TAF KALB 300537Z 3006/3106 20010G20KT 3SM -SN BR BKN020 OVC030 TEMPO 3006/3010 1SM -SN BKN010 FM301000 18010G20KT 1 1/2SM -SN OVC015 FM301400 32010G20KT 4SM -SHSN BKN015 BKN035 FM302000 32012G22KT P6SM VCSH BKN025 BKN035=

USA.gov is the U.S. government's official web portal to all federal, state and local government web resources and services.